sensor_id;sensor_type;location;lat;lon;timestamp;temperature;humidity
58409;DHT22;44202;52.730;6.470;2022-08-21T00:02:20;14.90;99.90
58409;DHT22;44202;52.730;6.470;2022-08-21T00:04:47;14.90;99.90
58409;DHT22;44202;52.730;6.470;2022-08-21T00:07:13;14.90;99.90
58409;DHT22;44202;52.730;6.470;2022-08-21T00:09:39;14.80;99.90
58409;DHT22;44202;52.730;6.470;2022-08-21T00:12:05;14.70;99.90
58409;DHT22;44202;52.730;6.470;2022-08-21T00:14:31;14.80;99.90
58409;DHT22;44202;52.730;6.470;2022-08-21T00:16:57;14.80;99.90
58409;DHT22;44202;52.730;6.470;2022-08-21T00:19:23;14.70;99.90
58409;DHT22;44202;52.730;6.470;2022-08-21T00:21:51;14.70;99.90
58409;DHT22;44202;52.730;6.470;2022-08-21T00:24:18;14.70;99.90
58409;DHT22;44202;52.730;6.470;2022-08-21T00:26:50;14.70;99.90
58409;DHT22;44202;52.730;6.470;2022-08-21T00:29:17;14.60;99.90
58409;DHT22;44202;52.730;6.470;2022-08-21T00:31:43;14.70;99.90
58409;DHT22;44202;52.730;6.470;2022-08-21T00:34:10;14.60;99.90
58409;DHT22;44202;52.730;6.470;2022-08-21T00:36:37;14.60;99.90
58409;DHT22;44202;52.730;6.470;2022-08-21T00:39:04;14.60;99.90
58409;DHT22;44202;52.730;6.470;2022-08-21T00:41:31;14.60;99.90
58409;DHT22;44202;52.730;6.470;2022-08-21T00:43:56;14.60;99.90
58409;DHT22;44202;52.730;6.470;2022-08-21T00:46:22;14.60;99.90
58409;DHT22;44202;52.730;6.470;2022-08-21T00:48:48;14.50;99.90
58409;DHT22;44202;52.730;6.470;2022-08-21T00:51:24;14.50;99.90
58409;DHT22;44202;52.730;6.470;2022-08-21T00:53:54;14.50;99.90
58409;DHT22;44202;52.730;6.470;2022-08-21T00:56:22;14.40;99.90
58409;DHT22;44202;52.730;6.470;2022-08-21T00:58:48;14.40;99.90
58409;DHT22;44202;52.730;6.470;2022-08-21T01:01:14;14.40;99.90
58409;DHT22;44202;52.730;6.470;2022-08-21T01:03:40;14.30;99.90
58409;DHT22;44202;52.730;6.470;2022-08-21T01:06:06;14.40;99.90
58409;DHT22;44202;52.730;6.470;2022-08-21T01:08:33;14.30;99.90
58409;DHT22;44202;52.730;6.470;2022-08-21T01:10:59;14.30;99.90
58409;DHT22;44202;52.730;6.470;2022-08-21T01:13:27;14.20;99.90
58409;DHT22;44202;52.730;6.470;2022-08-21T01:15:56;14.10;99.90
58409;DHT22;44202;52.730;6.470;2022-08-21T01:18:26;14.20;99.90
58409;DHT22;44202;52.730;6.470;2022-08-21T01:23:30;14.10;99.90
58409;DHT22;44202;52.730;6.470;2022-08-21T01:25:55;14.10;99.90
58409;DHT22;44202;52.730;6.470;2022-08-21T01:28:22;14.00;99.90
58409;DHT22;44202;52.730;6.470;2022-08-21T01:30:49;14.00;99.90
58409;DHT22;44202;52.730;6.470;2022-08-21T01:33:18;14.00;99.90
58409;DHT22;44202;52.730;6.470;2022-08-21T01:35:44;14.00;99.90
58409;DHT22;44202;52.730;6.470;2022-08-21T01:38:10;14.00;99.90
58409;DHT22;44202;52.730;6.470;2022-08-21T01:40:36;13.90;99.90
58409;DHT22;44202;52.730;6.470;2022-08-21T01:43:02;14.00;99.90
58409;DHT22;44202;52.730;6.470;2022-08-21T01:45:28;13.90;99.90
58409;DHT22;44202;52.730;6.470;2022-08-21T01:47:54;13.90;99.90
58409;DHT22;44202;52.730;6.470;2022-08-21T01:50:20;13.90;99.90
58409;DHT22;44202;52.730;6.470;2022-08-21T01:52:46;13.80;99.90
58409;DHT22;44202;52.730;6.470;2022-08-21T01:55:13;13.80;99.90
58409;DHT22;44202;52.730;6.470;2022-08-21T01:57:39;13.80;99.90
58409;DHT22;44202;52.730;6.470;2022-08-21T02:00:07;13.70;99.90
58409;DHT22;44202;52.730;6.470;2022-08-21T02:02:34;13.80;99.90
58409;DHT22;44202;52.730;6.470;2022-08-21T02:04:59;13.80;99.90
58409;DHT22;44202;52.730;6.470;2022-08-21T02:07:25;13.70;99.90
58409;DHT22;44202;52.730;6.470;2022-08-21T02:09:51;13.80;99.90
58409;DHT22;44202;52.730;6.470;2022-08-21T02:12:17;13.70;99.90
58409;DHT22;44202;52.730;6.470;2022-08-21T02:14:42;13.80;99.90
58409;DHT22;44202;52.730;6.470;2022-08-21T02:17:08;13.70;99.90
58409;DHT22;44202;52.730;6.470;2022-08-21T02:19:34;13.80;99.90
58409;DHT22;44202;52.730;6.470;2022-08-21T02:21:59;13.70;99.90
58409;DHT22;44202;52.730;6.470;2022-08-21T02:24:25;13.70;99.90
58409;DHT22;44202;52.730;6.470;2022-08-21T02:26:50;13.60;99.90
58409;DHT22;44202;52.730;6.470;2022-08-21T02:29:16;13.70;99.90
58409;DHT22;44202;52.730;6.470;2022-08-21T02:31:42;13.70;99.90
58409;DHT22;44202;52.730;6.470;2022-08-21T02:34:07;13.50;99.90
58409;DHT22;44202;52.730;6.470;2022-08-21T02:36:34;13.60;99.90
58409;DHT22;44202;52.730;6.470;2022-08-21T02:39:00;13.50;99.90
58409;DHT22;44202;52.730;6.470;2022-08-21T02:41:25;13.50;99.90
58409;DHT22;44202;52.730;6.470;2022-08-21T02:43:51;13.50;99.90
58409;DHT22;44202;52.730;6.470;2022-08-21T02:46:19;13.50;99.90
58409;DHT22;44202;52.730;6.470;2022-08-21T02:48:45;13.40;99.90
58409;DHT22;44202;52.730;6.470;2022-08-21T02:51:18;13.50;99.90
58409;DHT22;44202;52.730;6.470;2022-08-21T02:53:46;13.40;99.90
58409;DHT22;44202;52.730;6.470;2022-08-21T02:56:14;13.50;99.90
58409;DHT22;44202;52.730;6.470;2022-08-21T02:58:47;13.50;99.90
58409;DHT22;44202;52.730;6.470;2022-08-21T03:01:13;13.40;99.90
58409;DHT22;44202;52.730;6.470;2022-08-21T03:03:41;13.50;99.90
58409;DHT22;44202;52.730;6.470;2022-08-21T03:06:09;13.50;99.90
58409;DHT22;44202;52.730;6.470;2022-08-21T03:08:36;13.50;99.90
58409;DHT22;44202;52.730;6.470;2022-08-21T03:11:03;13.50;99.90
58409;DHT22;44202;52.730;6.470;2022-08-21T03:13:29;13.40;99.90
58409;DHT22;44202;52.730;6.470;2022-08-21T03:15:55;13.40;99.90
58409;DHT22;44202;52.730;6.470;2022-08-21T03:18:21;13.40;99.90
58409;DHT22;44202;52.730;6.470;2022-08-21T03:20:47;13.40;99.90
58409;DHT22;44202;52.730;6.470;2022-08-21T03:23:14;13.30;99.90
58409;DHT22;44202;52.730;6.470;2022-08-21T03:25:41;13.40;99.90
58409;DHT22;44202;52.730;6.470;2022-08-21T03:28:10;13.30;99.90
58409;DHT22;44202;52.730;6.470;2022-08-21T03:30:36;13.30;99.90
58409;DHT22;44202;52.730;6.470;2022-08-21T03:33:02;13.40;99.90
58409;DHT22;44202;52.730;6.470;2022-08-21T03:35:28;13.40;99.90
58409;DHT22;44202;52.730;6.470;2022-08-21T03:37:54;13.30;99.90
58409;DHT22;44202;52.730;6.470;2022-08-21T03:40:22;13.30;99.90
58409;DHT22;44202;52.730;6.470;2022-08-21T03:42:48;13.30;99.90
58409;DHT22;44202;52.730;6.470;2022-08-21T03:45:16;13.40;99.90
58409;DHT22;44202;52.730;6.470;2022-08-21T03:48:01;13.30;99.90
58409;DHT22;44202;52.730;6.470;2022-08-21T03:50:30;13.30;99.90
58409;DHT22;44202;52.730;6.470;2022-08-21T03:52:56;13.30;99.90
58409;DHT22;44202;52.730;6.470;2022-08-21T03:55:23;13.40;99.90
58409;DHT22;44202;52.730;6.470;2022-08-21T03:57:48;13.40;99.90
58409;DHT22;44202;52.730;6.470;2022-08-21T04:00:16;13.40;99.90
58409;DHT22;44202;52.730;6.470;2022-08-21T04:02:42;13.40;99.90
58409;DHT22;44202;52.730;6.470;2022-08-21T04:05:09;13.40;99.90
58409;DHT22;44202;52.730;6.470;2022-08-21T04:07:35;13.40;99.90
58409;DHT22;44202;52.730;6.470;2022-08-21T04:10:02;13.40;99.90
58409;DHT22;44202;52.730;6.470;2022-08-21T04:12:28;13.40;99.90
58409;DHT22;44202;52.730;6.470;2022-08-21T04:14:53;13.30;99.90
58409;DHT22;44202;52.730;6.470;2022-08-21T04:17:19;13.30;99.90
58409;DHT22;44202;52.730;6.470;2022-08-21T04:19:45;13.40;99.90
58409;DHT22;44202;52.730;6.470;2022-08-21T04:22:11;13.30;99.90
58409;DHT22;44202;52.730;6.470;2022-08-21T04:24:36;13.30;99.90
58409;DHT22;44202;52.730;6.470;2022-08-21T04:27:02;13.20;99.90
58409;DHT22;44202;52.730;6.470;2022-08-21T04:29:28;13.20;99.90
58409;DHT22;44202;52.730;6.470;2022-08-21T04:31:54;13.20;99.90
58409;DHT22;44202;52.730;6.470;2022-08-21T04:34:20;13.30;99.90
58409;DHT22;44202;52.730;6.470;2022-08-21T04:36:45;13.30;99.90
58409;DHT22;44202;52.730;6.470;2022-08-21T04:39:11;13.30;99.90
58409;DHT22;44202;52.730;6.470;2022-08-21T04:41:36;13.20;99.90
58409;DHT22;44202;52.730;6.470;2022-08-21T04:44:03;13.40;99.90
58409;DHT22;44202;52.730;6.470;2022-08-21T04:46:29;13.20;99.90
58409;DHT22;44202;52.730;6.470;2022-08-21T04:48:55;13.20;99.90
58409;DHT22;44202;52.730;6.470;2022-08-21T04:51:28;13.20;99.90
58409;DHT22;44202;52.730;6.470;2022-08-21T04:54:02;13.30;99.90
58409;DHT22;44202;52.730;6.470;2022-08-21T04:56:44;13.20;99.90
58409;DHT22;44202;52.730;6.470;2022-08-21T04:59:16;13.30;99.90
58409;DHT22;44202;52.730;6.470;2022-08-21T05:01:43;13.30;99.90
58409;DHT22;44202;52.730;6.470;2022-08-21T05:04:13;13.40;99.90
58409;DHT22;44202;52.730;6.470;2022-08-21T05:06:41;13.40;99.90
58409;DHT22;44202;52.730;6.470;2022-08-21T05:09:09;13.40;99.90
58409;DHT22;44202;52.730;6.470;2022-08-21T05:11:35;13.40;99.90
58409;DHT22;44202;52.730;6.470;2022-08-21T05:14:03;13.50;99.90
58409;DHT22;44202;52.730;6.470;2022-08-21T05:16:28;13.50;99.90
58409;DHT22;44202;52.730;6.470;2022-08-21T05:18:54;13.50;99.90
58409;DHT22;44202;52.730;6.470;2022-08-21T05:21:20;13.60;99.90
58409;DHT22;44202;52.730;6.470;2022-08-21T05:23:46;13.70;99.90
58409;DHT22;44202;52.730;6.470;2022-08-21T05:26:12;13.70;99.90
58409;DHT22;44202;52.730;6.470;2022-08-21T05:28:37;13.60;99.90
58409;DHT22;44202;52.730;6.470;2022-08-21T05:31:03;13.80;99.90
58409;DHT22;44202;52.730;6.470;2022-08-21T05:33:29;13.80;99.90
58409;DHT22;44202;52.730;6.470;2022-08-21T05:35:55;13.80;99.90
58409;DHT22;44202;52.730;6.470;2022-08-21T05:38:22;14.00;99.90
58409;DHT22;44202;52.730;6.470;2022-08-21T05:40:48;14.10;99.90
58409;DHT22;44202;52.730;6.470;2022-08-21T05:43:14;14.20;99.90
58409;DHT22;44202;52.730;6.470;2022-08-21T05:45:41;14.20;99.90
58409;DHT22;44202;52.730;6.470;2022-08-21T05:48:08;14.20;99.90
58409;DHT22;44202;52.730;6.470;2022-08-21T05:50:34;14.30;99.90
58409;DHT22;44202;52.730;6.470;2022-08-21T05:53:00;14.40;99.90
58409;DHT22;44202;52.730;6.470;2022-08-21T05:55:26;14.50;99.90
58409;DHT22;44202;52.730;6.470;2022-08-21T05:57:52;14.60;99.90
58409;DHT22;44202;52.730;6.470;2022-08-21T06:00:18;14.70;99.90
58409;DHT22;44202;52.730;6.470;2022-08-21T06:02:43;14.80;99.90
58409;DHT22;44202;52.730;6.470;2022-08-21T06:05:09;14.90;99.90
58409;DHT22;44202;52.730;6.470;2022-08-21T06:07:35;15.00;99.90
58409;DHT22;44202;52.730;6.470;2022-08-21T06:10:00;15.20;99.90
58409;DHT22;44202;52.730;6.470;2022-08-21T06:12:26;15.30;99.90
58409;DHT22;44202;52.730;6.470;2022-08-21T06:14:52;15.40;99.90
58409;DHT22;44202;52.730;6.470;2022-08-21T06:17:18;15.50;99.90
58409;DHT22;44202;52.730;6.470;2022-08-21T06:19:44;15.60;99.90
58409;DHT22;44202;52.730;6.470;2022-08-21T06:22:09;15.70;99.90
58409;DHT22;44202;52.730;6.470;2022-08-21T06:24:35;15.80;99.90
58409;DHT22;44202;52.730;6.470;2022-08-21T06:27:07;15.90;99.90
58409;DHT22;44202;52.730;6.470;2022-08-21T06:29:34;16.00;99.90
58409;DHT22;44202;52.730;6.470;2022-08-21T06:32:00;16.10;99.90
58409;DHT22;44202;52.730;6.470;2022-08-21T06:34:27;16.20;99.90
58409;DHT22;44202;52.730;6.470;2022-08-21T06:36:52;16.30;99.90
58409;DHT22;44202;52.730;6.470;2022-08-21T06:39:18;16.40;99.90
58409;DHT22;44202;52.730;6.470;2022-08-21T06:41:43;16.50;99.90
58409;DHT22;44202;52.730;6.470;2022-08-21T06:44:09;16.50;99.90
58409;DHT22;44202;52.730;6.470;2022-08-21T06:46:35;16.60;99.90
58409;DHT22;44202;52.730;6.470;2022-08-21T06:49:01;16.70;99.90
58409;DHT22;44202;52.730;6.470;2022-08-21T06:51:27;16.80;99.90
58409;DHT22;44202;52.730;6.470;2022-08-21T06:53:52;16.90;99.90
58409;DHT22;44202;52.730;6.470;2022-08-21T06:56:19;17.00;99.90
58409;DHT22;44202;52.730;6.470;2022-08-21T06:58:44;17.00;99.90
58409;DHT22;44202;52.730;6.470;2022-08-21T07:01:10;17.20;99.90
58409;DHT22;44202;52.730;6.470;2022-08-21T07:03:39;17.30;99.90
58409;DHT22;44202;52.730;6.470;2022-08-21T07:06:06;17.40;99.90
58409;DHT22;44202;52.730;6.470;2022-08-21T07:08:33;17.50;99.90
58409;DHT22;44202;52.730;6.470;2022-08-21T07:11:01;17.60;99.90
58409;DHT22;44202;52.730;6.470;2022-08-21T07:13:27;17.70;99.90
58409;DHT22;44202;52.730;6.470;2022-08-21T07:15:53;17.80;99.90
58409;DHT22;44202;52.730;6.470;2022-08-21T07:18:19;17.90;99.90
58409;DHT22;44202;52.730;6.470;2022-08-21T07:20:45;18.00;99.90
58409;DHT22;44202;52.730;6.470;2022-08-21T07:23:28;18.20;99.90
58409;DHT22;44202;52.730;6.470;2022-08-21T07:25:54;18.30;99.90
58409;DHT22;44202;52.730;6.470;2022-08-21T07:28:19;18.40;99.90
58409;DHT22;44202;52.730;6.470;2022-08-21T07:30:46;18.60;99.90
58409;DHT22;44202;52.730;6.470;2022-08-21T07:33:16;18.60;99.90
58409;DHT22;44202;52.730;6.470;2022-08-21T07:35:41;18.80;99.90
58409;DHT22;44202;52.730;6.470;2022-08-21T07:38:07;18.90;99.90
58409;DHT22;44202;52.730;6.470;2022-08-21T07:40:33;19.00;99.90
58409;DHT22;44202;52.730;6.470;2022-08-21T07:42:59;19.00;99.90
58409;DHT22;44202;52.730;6.470;2022-08-21T07:45:24;19.20;99.90
58409;DHT22;44202;52.730;6.470;2022-08-21T07:47:50;19.20;99.90
58409;DHT22;44202;52.730;6.470;2022-08-21T07:50:16;19.40;99.90
58409;DHT22;44202;52.730;6.470;2022-08-21T07:52:42;19.50;99.90
58409;DHT22;44202;52.730;6.470;2022-08-21T07:55:12;19.60;99.90
58409;DHT22;44202;52.730;6.470;2022-08-21T07:57:38;19.60;99.90
58409;DHT22;44202;52.730;6.470;2022-08-21T08:00:07;19.60;99.90
58409;DHT22;44202;52.730;6.470;2022-08-21T08:02:33;19.70;99.90
58409;DHT22;44202;52.730;6.470;2022-08-21T08:05:03;19.90;99.90
58409;DHT22;44202;52.730;6.470;2022-08-21T08:07:29;20.00;99.90
58409;DHT22;44202;52.730;6.470;2022-08-21T08:09:55;20.10;99.90
58409;DHT22;44202;52.730;6.470;2022-08-21T08:12:22;20.10;99.90
58409;DHT22;44202;52.730;6.470;2022-08-21T08:14:48;20.20;99.90
58409;DHT22;44202;52.730;6.470;2022-08-21T08:17:14;20.40;99.90
58409;DHT22;44202;52.730;6.470;2022-08-21T08:19:39;20.50;99.90
58409;DHT22;44202;52.730;6.470;2022-08-21T08:22:16;20.70;99.90
58409;DHT22;44202;52.730;6.470;2022-08-21T08:24:44;20.90;99.90
58409;DHT22;44202;52.730;6.470;2022-08-21T08:27:10;21.10;99.90
58409;DHT22;44202;52.730;6.470;2022-08-21T08:29:36;21.20;99.90
58409;DHT22;44202;52.730;6.470;2022-08-21T08:32:03;21.50;99.90
58409;DHT22;44202;52.730;6.470;2022-08-21T08:34:28;21.90;99.90
58409;DHT22;44202;52.730;6.470;2022-08-21T08:36:55;22.70;99.90
58409;DHT22;44202;52.730;6.470;2022-08-21T08:39:23;23.30;99.90
58409;DHT22;44202;52.730;6.470;2022-08-21T08:41:49;23.40;99.90
58409;DHT22;44202;52.730;6.470;2022-08-21T08:44:17;23.40;99.90
58409;DHT22;44202;52.730;6.470;2022-08-21T08:46:46;24.00;99.90
58409;DHT22;44202;52.730;6.470;2022-08-21T08:49:23;24.90;99.90
58409;DHT22;44202;52.730;6.470;2022-08-21T08:54:33;26.40;86.40
58409;DHT22;44202;52.730;6.470;2022-08-21T08:57:02;26.80;78.70
58409;DHT22;44202;52.730;6.470;2022-08-21T08:59:39;27.30;74.10
58409;DHT22;44202;52.730;6.470;2022-08-21T09:02:05;28.00;72.60
58409;DHT22;44202;52.730;6.470;2022-08-21T09:04:33;28.60;68.20
58409;DHT22;44202;52.730;6.470;2022-08-21T09:10:12;29.40;62.30
58409;DHT22;44202;52.730;6.470;2022-08-21T09:18:04;30.30;59.30
58409;DHT22;44202;52.730;6.470;2022-08-21T09:28:42;31.20;56.60
58409;DHT22;44202;52.730;6.470;2022-08-21T09:31:15;31.30;56.60
58409;DHT22;44202;52.730;6.470;2022-08-21T09:33:43;31.40;55.50
58409;DHT22;44202;52.730;6.470;2022-08-21T09:36:10;31.50;55.70
58409;DHT22;44202;52.730;6.470;2022-08-21T09:38:36;31.50;55.00
58409;DHT22;44202;52.730;6.470;2022-08-21T09:41:09;31.20;55.20
58409;DHT22;44202;52.730;6.470;2022-08-21T09:43:36;31.10;55.30
58409;DHT22;44202;52.730;6.470;2022-08-21T09:48:41;30.80;56.40
58409;DHT22;44202;52.730;6.470;2022-08-21T09:51:11;31.30;55.20
58409;DHT22;44202;52.730;6.470;2022-08-21T09:53:42;31.40;54.10
58409;DHT22;44202;52.730;6.470;2022-08-21T09:56:28;30.80;55.00
58409;DHT22;44202;52.730;6.470;2022-08-21T09:59:25;30.90;55.70
58409;DHT22;44202;52.730;6.470;2022-08-21T10:01:53;31.50;55.60
58409;DHT22;44202;52.730;6.470;2022-08-21T10:04:28;31.80;53.80
58409;DHT22;44202;52.730;6.470;2022-08-21T10:06:54;32.10;55.40
58409;DHT22;44202;52.730;6.470;2022-08-21T10:09:30;32.10;53.60
58409;DHT22;44202;52.730;6.470;2022-08-21T10:12:10;31.60;54.90
58409;DHT22;44202;52.730;6.470;2022-08-21T10:15:04;31.30;54.80
58409;DHT22;44202;52.730;6.470;2022-08-21T10:18:02;30.70;57.10
58409;DHT22;44202;52.730;6.470;2022-08-21T10:20:52;30.60;58.10
58409;DHT22;44202;52.730;6.470;2022-08-21T10:26:57;30.10;56.70
58409;DHT22;44202;52.730;6.470;2022-08-21T10:40:35;29.50;58.90
58409;DHT22;44202;52.730;6.470;2022-08-21T10:48:27;29.10;59.30
58409;DHT22;44202;52.730;6.470;2022-08-21T10:51:04;29.20;60.20
58409;DHT22;44202;52.730;6.470;2022-08-21T10:53:51;28.80;60.00
58409;DHT22;44202;52.730;6.470;2022-08-21T10:56:32;27.60;60.80
58409;DHT22;44202;52.730;6.470;2022-08-21T10:59:00;26.80;65.40
58409;DHT22;44202;52.730;6.470;2022-08-21T11:04:12;27.90;68.60
58409;DHT22;44202;52.730;6.470;2022-08-21T11:06:44;28.80;64.30
58409;DHT22;44202;52.730;6.470;2022-08-21T11:09:17;29.50;63.60
58409;DHT22;44202;52.730;6.470;2022-08-21T11:12:05;30.10;60.50
58409;DHT22;44202;52.730;6.470;2022-08-21T11:14:49;30.80;60.00
58409;DHT22;44202;52.730;6.470;2022-08-21T11:17:27;31.40;57.70
58409;DHT22;44202;52.730;6.470;2022-08-21T11:25:06;32.50;53.40
58409;DHT22;44202;52.730;6.470;2022-08-21T11:27:45;32.20;52.30
58409;DHT22;44202;52.730;6.470;2022-08-21T11:30:13;31.30;53.90
58409;DHT22;44202;52.730;6.470;2022-08-21T11:33:07;31.00;55.10
58409;DHT22;44202;52.730;6.470;2022-08-21T11:35:47;31.50;55.30
58409;DHT22;44202;52.730;6.470;2022-08-21T11:38:34;31.90;53.50
58409;DHT22;44202;52.730;6.470;2022-08-21T11:41:19;31.80;53.70
58409;DHT22;44202;52.730;6.470;2022-08-21T11:44:02;31.00;54.30
58409;DHT22;44202;52.730;6.470;2022-08-21T11:54:34;30.70;57.50
58409;DHT22;44202;52.730;6.470;2022-08-21T11:57:14;31.20;52.90
58409;DHT22;44202;52.730;6.470;2022-08-21T12:00:05;31.00;52.80
58409;DHT22;44202;52.730;6.470;2022-08-21T12:02:37;31.20;52.60
58409;DHT22;44202;52.730;6.470;2022-08-21T12:05:06;31.50;52.30
58409;DHT22;44202;52.730;6.470;2022-08-21T12:10:08;32.10;50.40
58409;DHT22;44202;52.730;6.470;2022-08-21T12:12:37;32.40;49.80
58409;DHT22;44202;52.730;6.470;2022-08-21T12:28:34;28.20;60.50
58409;DHT22;44202;52.730;6.470;2022-08-21T12:31:00;28.00;60.20
58409;DHT22;44202;52.730;6.470;2022-08-21T12:33:32;27.70;61.40
58409;DHT22;44202;52.730;6.470;2022-08-21T12:36:10;27.50;62.00
58409;DHT22;44202;52.730;6.470;2022-08-21T12:41:27;26.50;63.80
58409;DHT22;44202;52.730;6.470;2022-08-21T12:44:24;26.20;67.60
58409;DHT22;44202;52.730;6.470;2022-08-21T12:46:59;26.00;65.60
58409;DHT22;44202;52.730;6.470;2022-08-21T12:49:36;25.80;68.30
58409;DHT22;44202;52.730;6.470;2022-08-21T12:52:24;25.70;69.40
58409;DHT22;44202;52.730;6.470;2022-08-21T12:54:53;25.90;72.20
58409;DHT22;44202;52.730;6.470;2022-08-21T12:57:26;26.10;73.80
58409;DHT22;44202;52.730;6.470;2022-08-21T12:59:57;26.20;72.50
58409;DHT22;44202;52.730;6.470;2022-08-21T13:02:31;26.20;75.60
58409;DHT22;44202;52.730;6.470;2022-08-21T13:05:04;26.30;71.90
58409;DHT22;44202;52.730;6.470;2022-08-21T13:07:32;26.20;71.00
58409;DHT22;44202;52.730;6.470;2022-08-21T13:10:05;26.00;74.80
58409;DHT22;44202;52.730;6.470;2022-08-21T13:12:32;26.00;74.70
58409;DHT22;44202;52.730;6.470;2022-08-21T13:15:03;26.20;71.40
58409;DHT22;44202;52.730;6.470;2022-08-21T13:17:32;26.40;70.20
58409;DHT22;44202;52.730;6.470;2022-08-21T13:20:06;26.40;70.80
58409;DHT22;44202;52.730;6.470;2022-08-21T13:22:32;26.50;71.70
58409;DHT22;44202;52.730;6.470;2022-08-21T13:25:00;26.60;74.20
58409;DHT22;44202;52.730;6.470;2022-08-21T13:27:29;26.60;68.80
58409;DHT22;44202;52.730;6.470;2022-08-21T13:32:42;26.60;71.40
58409;DHT22;44202;52.730;6.470;2022-08-21T13:35:11;26.50;70.40
58409;DHT22;44202;52.730;6.470;2022-08-21T13:37:40;26.40;73.90
58409;DHT22;44202;52.730;6.470;2022-08-21T13:42:41;26.60;69.20
58409;DHT22;44202;52.730;6.470;2022-08-21T13:45:34;26.50;69.40
58409;DHT22;44202;52.730;6.470;2022-08-21T13:48:01;26.40;70.30
58409;DHT22;44202;52.730;6.470;2022-08-21T13:50:27;26.20;70.70
58409;DHT22;44202;52.730;6.470;2022-08-21T13:53:05;26.10;71.50
58409;DHT22;44202;52.730;6.470;2022-08-21T13:55:41;26.00;75.70
58409;DHT22;44202;52.730;6.470;2022-08-21T13:58:08;25.90;79.60
58409;DHT22;44202;52.730;6.470;2022-08-21T14:00:46;25.90;90.00
58409;DHT22;44202;52.730;6.470;2022-08-21T14:03:31;26.10;81.30
58409;DHT22;44202;52.730;6.470;2022-08-21T14:05:57;26.10;80.60
58409;DHT22;44202;52.730;6.470;2022-08-21T14:08:33;25.90;77.80
58409;DHT22;44202;52.730;6.470;2022-08-21T14:11:00;25.70;73.60
58409;DHT22;44202;52.730;6.470;2022-08-21T14:13:41;25.50;83.70
58409;DHT22;44202;52.730;6.470;2022-08-21T14:16:20;25.40;83.00
58409;DHT22;44202;52.730;6.470;2022-08-21T14:19:20;25.10;81.60
58409;DHT22;44202;52.730;6.470;2022-08-21T14:21:46;25.00;90.30
58409;DHT22;44202;52.730;6.470;2022-08-21T14:29:17;24.90;93.10
58409;DHT22;44202;52.730;6.470;2022-08-21T14:31:43;25.20;97.70
58409;DHT22;44202;52.730;6.470;2022-08-21T14:34:14;25.40;95.00
58409;DHT22;44202;52.730;6.470;2022-08-21T14:36:42;25.50;93.00
58409;DHT22;44202;52.730;6.470;2022-08-21T14:39:08;25.60;92.50
58409;DHT22;44202;52.730;6.470;2022-08-21T14:41:34;25.70;91.60
58409;DHT22;44202;52.730;6.470;2022-08-21T14:44:02;25.90;87.40
58409;DHT22;44202;52.730;6.470;2022-08-21T14:46:29;26.00;77.70
58409;DHT22;44202;52.730;6.470;2022-08-21T14:48:55;26.10;76.40
58409;DHT22;44202;52.730;6.470;2022-08-21T14:51:21;26.00;78.10
58409;DHT22;44202;52.730;6.470;2022-08-21T14:53:47;25.90;80.90
58409;DHT22;44202;52.730;6.470;2022-08-21T14:56:14;25.80;81.00
58409;DHT22;44202;52.730;6.470;2022-08-21T14:58:44;25.60;77.90
58409;DHT22;44202;52.730;6.470;2022-08-21T15:01:12;25.40;80.20
58409;DHT22;44202;52.730;6.470;2022-08-21T15:03:38;25.30;80.70
58409;DHT22;44202;52.730;6.470;2022-08-21T15:06:05;25.10;83.40
58409;DHT22;44202;52.730;6.470;2022-08-21T15:08:31;25.10;93.50
58409;DHT22;44202;52.730;6.470;2022-08-21T15:10:59;25.20;90.00
58409;DHT22;44202;52.730;6.470;2022-08-21T15:13:25;25.20;86.40
58409;DHT22;44202;52.730;6.470;2022-08-21T15:15:52;25.20;83.60
58409;DHT22;44202;52.730;6.470;2022-08-21T15:18:22;25.10;88.60
58409;DHT22;44202;52.730;6.470;2022-08-21T15:20:49;25.10;91.40
58409;DHT22;44202;52.730;6.470;2022-08-21T15:23:15;25.10;96.30
58409;DHT22;44202;52.730;6.470;2022-08-21T15:25:43;25.00;93.80
58409;DHT22;44202;52.730;6.470;2022-08-21T15:28:10;25.00;93.80
58409;DHT22;44202;52.730;6.470;2022-08-21T15:30:37;25.00;95.80
58409;DHT22;44202;52.730;6.470;2022-08-21T15:33:04;25.00;94.50
58409;DHT22;44202;52.730;6.470;2022-08-21T15:35:30;24.90;93.80
58409;DHT22;44202;52.730;6.470;2022-08-21T15:37:56;24.90;93.50
58409;DHT22;44202;52.730;6.470;2022-08-21T15:40:23;24.90;94.60
58409;DHT22;44202;52.730;6.470;2022-08-21T15:42:50;24.90;91.10
58409;DHT22;44202;52.730;6.470;2022-08-21T15:45:18;24.90;94.10
58409;DHT22;44202;52.730;6.470;2022-08-21T15:47:45;24.90;96.60
58409;DHT22;44202;52.730;6.470;2022-08-21T15:50:12;25.30;95.60
58409;DHT22;44202;52.730;6.470;2022-08-21T15:52:38;25.90;90.00
58409;DHT22;44202;52.730;6.470;2022-08-21T15:55:05;26.50;83.20
58409;DHT22;44202;52.730;6.470;2022-08-21T15:57:31;26.60;75.70
58409;DHT22;44202;52.730;6.470;2022-08-21T16:00:00;26.40;72.40
58409;DHT22;44202;52.730;6.470;2022-08-21T16:02:34;26.20;76.00
58409;DHT22;44202;52.730;6.470;2022-08-21T16:05:01;25.90;73.80
58409;DHT22;44202;52.730;6.470;2022-08-21T16:07:27;25.60;77.50
58409;DHT22;44202;52.730;6.470;2022-08-21T16:09:53;25.40;82.00
58409;DHT22;44202;52.730;6.470;2022-08-21T16:12:31;25.30;81.50
58409;DHT22;44202;52.730;6.470;2022-08-21T16:14:58;25.00;76.20
58409;DHT22;44202;52.730;6.470;2022-08-21T16:17:31;24.70;79.80
58409;DHT22;44202;52.730;6.470;2022-08-21T16:19:58;24.50;84.00
58409;DHT22;44202;52.730;6.470;2022-08-21T16:22:25;24.50;85.80
58409;DHT22;44202;52.730;6.470;2022-08-21T16:24:51;24.40;82.40
58409;DHT22;44202;52.730;6.470;2022-08-21T16:27:17;24.30;90.00
58409;DHT22;44202;52.730;6.470;2022-08-21T16:29:44;24.20;89.90
58409;DHT22;44202;52.730;6.470;2022-08-21T16:32:10;24.10;92.60
58409;DHT22;44202;52.730;6.470;2022-08-21T16:34:39;24.00;94.10
58409;DHT22;44202;52.730;6.470;2022-08-21T16:37:06;23.90;96.40
58409;DHT22;44202;52.730;6.470;2022-08-21T16:39:32;23.90;95.70
58409;DHT22;44202;52.730;6.470;2022-08-21T16:41:57;23.70;96.10
58409;DHT22;44202;52.730;6.470;2022-08-21T16:44:23;23.60;98.10
58409;DHT22;44202;52.730;6.470;2022-08-21T16:46:49;23.50;98.80
58409;DHT22;44202;52.730;6.470;2022-08-21T16:49:17;23.50;99.90
58409;DHT22;44202;52.730;6.470;2022-08-21T16:51:43;23.30;98.90
58409;DHT22;44202;52.730;6.470;2022-08-21T16:54:11;23.20;99.90
58409;DHT22;44202;52.730;6.470;2022-08-21T16:56:38;23.00;99.90
58409;DHT22;44202;52.730;6.470;2022-08-21T16:59:04;22.90;99.90
58409;DHT22;44202;52.730;6.470;2022-08-21T17:01:32;22.80;99.90
58409;DHT22;44202;52.730;6.470;2022-08-21T17:03:58;22.80;99.90
58409;DHT22;44202;52.730;6.470;2022-08-21T17:06:24;22.70;99.90
58409;DHT22;44202;52.730;6.470;2022-08-21T17:08:51;22.60;99.90
58409;DHT22;44202;52.730;6.470;2022-08-21T17:11:47;22.60;99.90